sensor_id;sensor_type;location;lat;lon;timestamp;temperature;humidity
25440;DHT22;13365;52.208;5.488;2023-08-08T00:00:56;20.00;99.90
25440;DHT22;13365;52.208;5.488;2023-08-08T00:03:21;19.90;99.90
25440;DHT22;13365;52.208;5.488;2023-08-08T00:05:47;19.90;99.90
25440;DHT22;13365;52.208;5.488;2023-08-08T00:08:12;19.90;99.90
25440;DHT22;13365;52.208;5.488;2023-08-08T00:10:38;20.00;99.90
25440;DHT22;13365;52.208;5.488;2023-08-08T00:13:04;19.90;99.90
25440;DHT22;13365;52.208;5.488;2023-08-08T00:15:30;19.90;99.90
25440;DHT22;13365;52.208;5.488;2023-08-08T00:17:55;20.00;99.90
25440;DHT22;13365;52.208;5.488;2023-08-08T00:20:21;20.00;99.90
25440;DHT22;13365;52.208;5.488;2023-08-08T00:22:46;20.10;99.90
25440;DHT22;13365;52.208;5.488;2023-08-08T00:25:12;20.10;99.90
25440;DHT22;13365;52.208;5.488;2023-08-08T00:27:37;20.00;99.90
25440;DHT22;13365;52.208;5.488;2023-08-08T00:30:08;20.00;99.90
25440;DHT22;13365;52.208;5.488;2023-08-08T00:32:34;20.00;99.90
25440;DHT22;13365;52.208;5.488;2023-08-08T00:35:00;20.00;99.90
25440;DHT22;13365;52.208;5.488;2023-08-08T00:37:26;20.20;99.90
25440;DHT22;13365;52.208;5.488;2023-08-08T00:39:51;20.20;99.90
25440;DHT22;13365;52.208;5.488;2023-08-08T00:42:17;20.20;99.90
25440;DHT22;13365;52.208;5.488;2023-08-08T00:44:43;20.10;99.90
25440;DHT22;13365;52.208;5.488;2023-08-08T00:47:09;20.00;99.90
25440;DHT22;13365;52.208;5.488;2023-08-08T00:49:35;20.00;99.90
25440;DHT22;13365;52.208;5.488;2023-08-08T00:52:01;20.10;99.90
25440;DHT22;13365;52.208;5.488;2023-08-08T00:54:27;20.30;99.90
25440;DHT22;13365;52.208;5.488;2023-08-08T00:56:53;20.20;99.90
25440;DHT22;13365;52.208;5.488;2023-08-08T00:59:19;20.20;99.90
25440;DHT22;13365;52.208;5.488;2023-08-08T01:01:45;20.30;99.90
25440;DHT22;13365;52.208;5.488;2023-08-08T01:04:12;20.20;99.90
25440;DHT22;13365;52.208;5.488;2023-08-08T01:09:33;20.40;99.90
25440;DHT22;13365;52.208;5.488;2023-08-08T01:12:02;20.40;99.90
25440;DHT22;13365;52.208;5.488;2023-08-08T01:14:30;20.40;99.90
25440;DHT22;13365;52.208;5.488;2023-08-08T01:16:57;20.50;99.90
25440;DHT22;13365;52.208;5.488;2023-08-08T01:19:28;20.30;99.90
25440;DHT22;13365;52.208;5.488;2023-08-08T01:21:54;20.30;99.90
25440;DHT22;13365;52.208;5.488;2023-08-08T01:24:24;20.30;99.90
25440;DHT22;13365;52.208;5.488;2023-08-08T01:26:53;20.40;99.90
25440;DHT22;13365;52.208;5.488;2023-08-08T01:29:18;20.50;99.90
25440;DHT22;13365;52.208;5.488;2023-08-08T01:31:44;20.60;99.90
25440;DHT22;13365;52.208;5.488;2023-08-08T01:34:10;20.50;99.90
25440;DHT22;13365;52.208;5.488;2023-08-08T01:36:45;20.40;99.90
25440;DHT22;13365;52.208;5.488;2023-08-08T01:39:14;20.30;99.90
25440;DHT22;13365;52.208;5.488;2023-08-08T01:41:43;20.60;99.90
25440;DHT22;13365;52.208;5.488;2023-08-08T01:44:10;20.60;99.90
25440;DHT22;13365;52.208;5.488;2023-08-08T01:46:36;20.40;99.90
25440;DHT22;13365;52.208;5.488;2023-08-08T01:49:03;20.10;99.90
25440;DHT22;13365;52.208;5.488;2023-08-08T01:51:31;20.10;99.90
25440;DHT22;13365;52.208;5.488;2023-08-08T01:53:57;20.00;99.90
25440;DHT22;13365;52.208;5.488;2023-08-08T01:56:22;20.00;99.90
25440;DHT22;13365;52.208;5.488;2023-08-08T01:58:48;20.00;99.90
25440;DHT22;13365;52.208;5.488;2023-08-08T02:01:13;20.00;99.90
25440;DHT22;13365;52.208;5.488;2023-08-08T02:03:39;20.00;99.90
25440;DHT22;13365;52.208;5.488;2023-08-08T02:06:04;19.90;99.90
25440;DHT22;13365;52.208;5.488;2023-08-08T02:08:30;20.00;99.90
25440;DHT22;13365;52.208;5.488;2023-08-08T02:10:55;20.00;99.90
25440;DHT22;13365;52.208;5.488;2023-08-08T02:13:21;20.00;99.90
25440;DHT22;13365;52.208;5.488;2023-08-08T02:15:47;20.00;99.90
25440;DHT22;13365;52.208;5.488;2023-08-08T02:18:12;20.20;99.90
25440;DHT22;13365;52.208;5.488;2023-08-08T02:20:38;20.10;99.90
25440;DHT22;13365;52.208;5.488;2023-08-08T02:23:03;20.00;99.90
25440;DHT22;13365;52.208;5.488;2023-08-08T02:25:29;20.20;99.90
25440;DHT22;13365;52.208;5.488;2023-08-08T02:27:56;20.10;99.90
25440;DHT22;13365;52.208;5.488;2023-08-08T02:30:22;20.10;99.90
25440;DHT22;13365;52.208;5.488;2023-08-08T02:32:47;20.00;99.90
25440;DHT22;13365;52.208;5.488;2023-08-08T02:35:13;20.10;99.90
25440;DHT22;13365;52.208;5.488;2023-08-08T02:37:38;20.20;99.90
25440;DHT22;13365;52.208;5.488;2023-08-08T02:40:06;20.30;99.90
25440;DHT22;13365;52.208;5.488;2023-08-08T02:42:32;20.30;99.90
25440;DHT22;13365;52.208;5.488;2023-08-08T02:44:57;20.20;99.90
25440;DHT22;13365;52.208;5.488;2023-08-08T02:47:23;20.30;99.90
25440;DHT22;13365;52.208;5.488;2023-08-08T02:49:49;20.40;99.90
25440;DHT22;13365;52.208;5.488;2023-08-08T02:52:14;20.40;99.90
25440;DHT22;13365;52.208;5.488;2023-08-08T02:54:40;20.30;99.90
25440;DHT22;13365;52.208;5.488;2023-08-08T02:57:05;20.40;99.90
25440;DHT22;13365;52.208;5.488;2023-08-08T02:59:31;20.40;99.90
25440;DHT22;13365;52.208;5.488;2023-08-08T03:01:57;20.30;99.90
25440;DHT22;13365;52.208;5.488;2023-08-08T03:04:22;20.30;99.90
25440;DHT22;13365;52.208;5.488;2023-08-08T03:06:48;20.50;99.90
25440;DHT22;13365;52.208;5.488;2023-08-08T03:09:13;20.50;99.90
25440;DHT22;13365;52.208;5.488;2023-08-08T03:11:39;20.30;99.90
25440;DHT22;13365;52.208;5.488;2023-08-08T03:14:07;20.40;99.90
25440;DHT22;13365;52.208;5.488;2023-08-08T03:16:34;20.30;99.90
25440;DHT22;13365;52.208;5.488;2023-08-08T03:18:59;20.60;99.90
25440;DHT22;13365;52.208;5.488;2023-08-08T03:21:25;20.40;99.90
25440;DHT22;13365;52.208;5.488;2023-08-08T03:23:50;20.50;99.90
25440;DHT22;13365;52.208;5.488;2023-08-08T03:26:16;20.50;99.90
25440;DHT22;13365;52.208;5.488;2023-08-08T03:28:41;20.60;99.90
25440;DHT22;13365;52.208;5.488;2023-08-08T03:31:07;20.60;99.90
25440;DHT22;13365;52.208;5.488;2023-08-08T03:33:33;20.60;99.90
25440;DHT22;13365;52.208;5.488;2023-08-08T03:35:58;20.50;99.90
25440;DHT22;13365;52.208;5.488;2023-08-08T03:38:24;20.50;99.90
25440;DHT22;13365;52.208;5.488;2023-08-08T03:40:50;20.50;99.90
25440;DHT22;13365;52.208;5.488;2023-08-08T03:43:16;20.50;99.90
25440;DHT22;13365;52.208;5.488;2023-08-08T03:45:41;20.40;99.90
25440;DHT22;13365;52.208;5.488;2023-08-08T03:48:07;20.40;99.90
25440;DHT22;13365;52.208;5.488;2023-08-08T03:50:32;20.50;99.90
25440;DHT22;13365;52.208;5.488;2023-08-08T03:52:58;20.60;99.90
25440;DHT22;13365;52.208;5.488;2023-08-08T03:55:24;20.40;99.90
25440;DHT22;13365;52.208;5.488;2023-08-08T03:57:49;20.30;99.90
25440;DHT22;13365;52.208;5.488;2023-08-08T04:00:15;20.40;99.90
25440;DHT22;13365;52.208;5.488;2023-08-08T04:02:41;20.40;99.90
25440;DHT22;13365;52.208;5.488;2023-08-08T04:05:06;20.30;99.90
25440;DHT22;13365;52.208;5.488;2023-08-08T04:07:34;20.30;99.90
25440;DHT22;13365;52.208;5.488;2023-08-08T04:09:59;20.40;99.90
25440;DHT22;13365;52.208;5.488;2023-08-08T04:12:25;20.30;99.90
25440;DHT22;13365;52.208;5.488;2023-08-08T04:14:50;20.30;99.90
25440;DHT22;13365;52.208;5.488;2023-08-08T04:17:16;20.20;99.90
25440;DHT22;13365;52.208;5.488;2023-08-08T04:19:41;20.30;99.90
25440;DHT22;13365;52.208;5.488;2023-08-08T04:22:07;20.20;99.90
25440;DHT22;13365;52.208;5.488;2023-08-08T04:24:32;20.20;99.90
25440;DHT22;13365;52.208;5.488;2023-08-08T04:26:58;20.10;99.90
25440;DHT22;13365;52.208;5.488;2023-08-08T04:29:24;20.20;99.90
25440;DHT22;13365;52.208;5.488;2023-08-08T04:31:49;20.10;99.90
25440;DHT22;13365;52.208;5.488;2023-08-08T04:34:15;20.10;99.90
25440;DHT22;13365;52.208;5.488;2023-08-08T04:36:40;20.00;99.90
25440;DHT22;13365;52.208;5.488;2023-08-08T04:39:06;19.90;99.90
25440;DHT22;13365;52.208;5.488;2023-08-08T04:41:31;19.90;99.90
25440;DHT22;13365;52.208;5.488;2023-08-08T04:43:57;19.80;99.90
25440;DHT22;13365;52.208;5.488;2023-08-08T04:46:22;19.80;99.90
25440;DHT22;13365;52.208;5.488;2023-08-08T04:48:48;19.70;99.90
25440;DHT22;13365;52.208;5.488;2023-08-08T04:51:13;19.60;99.90
25440;DHT22;13365;52.208;5.488;2023-08-08T04:53:39;19.90;99.90
25440;DHT22;13365;52.208;5.488;2023-08-08T04:56:05;19.80;99.90
25440;DHT22;13365;52.208;5.488;2023-08-08T04:58:30;19.80;99.90
25440;DHT22;13365;52.208;5.488;2023-08-08T05:00:56;19.80;99.90
25440;DHT22;13365;52.208;5.488;2023-08-08T05:03:21;19.80;99.90
25440;DHT22;13365;52.208;5.488;2023-08-08T05:05:47;19.80;99.90
25440;DHT22;13365;52.208;5.488;2023-08-08T05:08:13;19.90;99.90
25440;DHT22;13365;52.208;5.488;2023-08-08T05:10:38;20.00;99.90
25440;DHT22;13365;52.208;5.488;2023-08-08T05:13:04;19.90;99.90
25440;DHT22;13365;52.208;5.488;2023-08-08T05:15:30;19.80;99.90
25440;DHT22;13365;52.208;5.488;2023-08-08T05:17:55;20.00;99.90
25440;DHT22;13365;52.208;5.488;2023-08-08T05:20:21;20.10;99.90
25440;DHT22;13365;52.208;5.488;2023-08-08T05:22:47;20.10;99.90
25440;DHT22;13365;52.208;5.488;2023-08-08T05:25:13;20.20;99.90
25440;DHT22;13365;52.208;5.488;2023-08-08T05:27:39;20.00;99.90
25440;DHT22;13365;52.208;5.488;2023-08-08T05:30:05;19.90;99.90
25440;DHT22;13365;52.208;5.488;2023-08-08T05:32:31;19.80;99.90
25440;DHT22;13365;52.208;5.488;2023-08-08T05:34:57;19.60;99.90
25440;DHT22;13365;52.208;5.488;2023-08-08T05:37:26;19.50;99.90
25440;DHT22;13365;52.208;5.488;2023-08-08T05:39:53;19.10;99.90
25440;DHT22;13365;52.208;5.488;2023-08-08T05:42:18;19.30;99.90
25440;DHT22;13365;52.208;5.488;2023-08-08T05:44:44;19.30;99.90
25440;DHT22;13365;52.208;5.488;2023-08-08T05:47:10;19.30;99.90
25440;DHT22;13365;52.208;5.488;2023-08-08T05:49:35;19.20;99.90
25440;DHT22;13365;52.208;5.488;2023-08-08T05:52:01;19.30;99.90
25440;DHT22;13365;52.208;5.488;2023-08-08T05:54:27;19.60;99.90
25440;DHT22;13365;52.208;5.488;2023-08-08T05:56:53;19.40;99.90
25440;DHT22;13365;52.208;5.488;2023-08-08T05:59:19;19.60;99.90
25440;DHT22;13365;52.208;5.488;2023-08-08T06:01:44;19.60;99.90
25440;DHT22;13365;52.208;5.488;2023-08-08T06:04:10;19.60;99.90
25440;DHT22;13365;52.208;5.488;2023-08-08T06:06:35;19.40;99.90
25440;DHT22;13365;52.208;5.488;2023-08-08T06:09:01;19.50;99.90
25440;DHT22;13365;52.208;5.488;2023-08-08T06:11:27;19.70;99.90
25440;DHT22;13365;52.208;5.488;2023-08-08T06:13:52;19.80;99.90
25440;DHT22;13365;52.208;5.488;2023-08-08T06:16:19;19.70;99.90
25440;DHT22;13365;52.208;5.488;2023-08-08T06:18:45;19.70;99.90
25440;DHT22;13365;52.208;5.488;2023-08-08T06:21:11;19.80;99.90
25440;DHT22;13365;52.208;5.488;2023-08-08T06:23:36;19.90;99.90
25440;DHT22;13365;52.208;5.488;2023-08-08T06:26:02;19.90;99.90
25440;DHT22;13365;52.208;5.488;2023-08-08T06:28:27;19.60;99.90
25440;DHT22;13365;52.208;5.488;2023-08-08T06:30:53;19.80;99.90
25440;DHT22;13365;52.208;5.488;2023-08-08T06:33:18;19.80;99.90
25440;DHT22;13365;52.208;5.488;2023-08-08T06:35:44;19.80;99.90
25440;DHT22;13365;52.208;5.488;2023-08-08T06:38:10;19.80;99.90
25440;DHT22;13365;52.208;5.488;2023-08-08T06:40:35;19.60;99.90
25440;DHT22;13365;52.208;5.488;2023-08-08T06:43:02;19.70;99.90
25440;DHT22;13365;52.208;5.488;2023-08-08T06:45:28;19.70;99.90
25440;DHT22;13365;52.208;5.488;2023-08-08T06:47:54;19.40;99.90
25440;DHT22;13365;52.208;5.488;2023-08-08T06:50:19;19.50;99.90
25440;DHT22;13365;52.208;5.488;2023-08-08T06:52:45;19.40;99.90
25440;DHT22;13365;52.208;5.488;2023-08-08T06:55:11;19.40;99.90
25440;DHT22;13365;52.208;5.488;2023-08-08T06:57:37;19.40;99.90
25440;DHT22;13365;52.208;5.488;2023-08-08T07:00:03;19.40;99.90
25440;DHT22;13365;52.208;5.488;2023-08-08T07:02:32;19.50;99.90
25440;DHT22;13365;52.208;5.488;2023-08-08T07:04:57;19.60;99.90
25440;DHT22;13365;52.208;5.488;2023-08-08T07:07:23;19.50;99.90
25440;DHT22;13365;52.208;5.488;2023-08-08T07:09:48;19.60;99.90
25440;DHT22;13365;52.208;5.488;2023-08-08T07:12:14;19.60;99.90
25440;DHT22;13365;52.208;5.488;2023-08-08T07:14:39;19.50;99.90
25440;DHT22;13365;52.208;5.488;2023-08-08T07:17:05;19.40;99.90
25440;DHT22;13365;52.208;5.488;2023-08-08T07:19:31;19.60;99.90
25440;DHT22;13365;52.208;5.488;2023-08-08T07:21:56;19.60;99.90
25440;DHT22;13365;52.208;5.488;2023-08-08T07:24:22;19.90;99.90
25440;DHT22;13365;52.208;5.488;2023-08-08T07:26:48;19.80;99.90
25440;DHT22;13365;52.208;5.488;2023-08-08T07:29:13;19.80;99.90
25440;DHT22;13365;52.208;5.488;2023-08-08T07:31:39;19.80;99.90
25440;DHT22;13365;52.208;5.488;2023-08-08T07:34:04;19.90;99.90
25440;DHT22;13365;52.208;5.488;2023-08-08T07:36:30;20.10;99.90
25440;DHT22;13365;52.208;5.488;2023-08-08T07:38:55;20.20;99.60
25440;DHT22;13365;52.208;5.488;2023-08-08T07:41:25;20.40;99.90
25440;DHT22;13365;52.208;5.488;2023-08-08T07:43:52;20.60;99.30
25440;DHT22;13365;52.208;5.488;2023-08-08T07:46:17;20.90;99.40
25440;DHT22;13365;52.208;5.488;2023-08-08T07:48:43;20.90;98.00
25440;DHT22;13365;52.208;5.488;2023-08-08T07:51:08;20.80;98.40
25440;DHT22;13365;52.208;5.488;2023-08-08T07:53:34;20.70;98.80
25440;DHT22;13365;52.208;5.488;2023-08-08T07:55:59;20.70;97.20
25440;DHT22;13365;52.208;5.488;2023-08-08T07:58:25;20.70;97.70
25440;DHT22;13365;52.208;5.488;2023-08-08T08:00:52;20.70;98.30
25440;DHT22;13365;52.208;5.488;2023-08-08T08:03:19;20.80;97.50
25440;DHT22;13365;52.208;5.488;2023-08-08T08:05:44;20.90;96.70
25440;DHT22;13365;52.208;5.488;2023-08-08T08:08:10;21.10;97.10
25440;DHT22;13365;52.208;5.488;2023-08-08T08:10:35;21.20;95.60
25440;DHT22;13365;52.208;5.488;2023-08-08T08:13:01;21.10;95.80
25440;DHT22;13365;52.208;5.488;2023-08-08T08:15:28;21.10;95.80
25440;DHT22;13365;52.208;5.488;2023-08-08T08:17:53;21.20;96.40
25440;DHT22;13365;52.208;5.488;2023-08-08T08:20:19;21.30;95.70
25440;DHT22;13365;52.208;5.488;2023-08-08T08:22:44;21.50;96.20
25440;DHT22;13365;52.208;5.488;2023-08-08T08:25:10;21.70;94.30
25440;DHT22;13365;52.208;5.488;2023-08-08T08:27:36;21.90;94.30
25440;DHT22;13365;52.208;5.488;2023-08-08T08:30:06;21.60;93.90
25440;DHT22;13365;52.208;5.488;2023-08-08T08:32:33;21.80;94.60
25440;DHT22;13365;52.208;5.488;2023-08-08T08:35:01;22.00;93.80
25440;DHT22;13365;52.208;5.488;2023-08-08T08:37:28;21.80;92.60
25440;DHT22;13365;52.208;5.488;2023-08-08T08:39:53;21.70;92.90
25440;DHT22;13365;52.208;5.488;2023-08-08T08:42:19;21.50;93.20
25440;DHT22;13365;52.208;5.488;2023-08-08T08:44:46;21.40;93.00
25440;DHT22;13365;52.208;5.488;2023-08-08T08:47:12;21.50;93.90
25440;DHT22;13365;52.208;5.488;2023-08-08T08:49:39;21.40;92.90
25440;DHT22;13365;52.208;5.488;2023-08-08T08:52:05;21.20;92.90
25440;DHT22;13365;52.208;5.488;2023-08-08T08:54:33;20.80;93.00
25440;DHT22;13365;52.208;5.488;2023-08-08T08:57:00;20.80;94.10
25440;DHT22;13365;52.208;5.488;2023-08-08T08:59:26;20.90;93.80
25440;DHT22;13365;52.208;5.488;2023-08-08T09:01:51;20.80;93.90
25440;DHT22;13365;52.208;5.488;2023-08-08T09:04:20;20.80;94.30
25440;DHT22;13365;52.208;5.488;2023-08-08T09:06:47;21.10;94.70
25440;DHT22;13365;52.208;5.488;2023-08-08T09:09:12;21.20;93.00
25440;DHT22;13365;52.208;5.488;2023-08-08T09:11:40;21.10;93.30
25440;DHT22;13365;52.208;5.488;2023-08-08T09:14:20;21.30;93.60
25440;DHT22;13365;52.208;5.488;2023-08-08T09:16:47;21.40;92.90
25440;DHT22;13365;52.208;5.488;2023-08-08T09:19:16;21.20;93.30
25440;DHT22;13365;52.208;5.488;2023-08-08T09:21:45;20.80;93.50
25440;DHT22;13365;52.208;5.488;2023-08-08T09:24:12;20.80;93.40
25440;DHT22;13365;52.208;5.488;2023-08-08T09:26:41;20.80;93.10
25440;DHT22;13365;52.208;5.488;2023-08-08T09:29:08;21.00;94.70
25440;DHT22;13365;52.208;5.488;2023-08-08T09:31:37;21.20;93.30
25440;DHT22;13365;52.208;5.488;2023-08-08T09:34:03;21.30;93.70
25440;DHT22;13365;52.208;5.488;2023-08-08T09:36:30;20.90;93.40
25440;DHT22;13365;52.208;5.488;2023-08-08T09:38:55;21.10;93.60
25440;DHT22;13365;52.208;5.488;2023-08-08T09:41:22;21.30;94.90
25440;DHT22;13365;52.208;5.488;2023-08-08T09:43:52;21.70;93.50
25440;DHT22;13365;52.208;5.488;2023-08-08T09:46:23;21.80;93.50
25440;DHT22;13365;52.208;5.488;2023-08-08T09:48:49;21.70;92.20
25440;DHT22;13365;52.208;5.488;2023-08-08T09:51:15;21.60;92.60
25440;DHT22;13365;52.208;5.488;2023-08-08T09:53:41;21.50;92.60
25440;DHT22;13365;52.208;5.488;2023-08-08T09:56:07;21.30;92.70
25440;DHT22;13365;52.208;5.488;2023-08-08T09:58:34;21.20;93.00
25440;DHT22;13365;52.208;5.488;2023-08-08T10:01:00;21.20;92.90
25440;DHT22;13365;52.208;5.488;2023-08-08T10:03:26;21.20;93.50
25440;DHT22;13365;52.208;5.488;2023-08-08T10:05:54;21.20;93.30
25440;DHT22;13365;52.208;5.488;2023-08-08T10:08:20;21.50;93.50
25440;DHT22;13365;52.208;5.488;2023-08-08T10:10:48;21.60;93.90
25440;DHT22;13365;52.208;5.488;2023-08-08T10:13:25;21.90;93.10
25440;DHT22;13365;52.208;5.488;2023-08-08T10:15:52;22.10;90.90
25440;DHT22;13365;52.208;5.488;2023-08-08T10:18:20;21.90;89.60
25440;DHT22;13365;52.208;5.488;2023-08-08T10:20:50;21.40;90.90
25440;DHT22;13365;52.208;5.488;2023-08-08T10:23:17;21.10;91.30
25440;DHT22;13365;52.208;5.488;2023-08-08T10:25:48;21.00;92.50
25440;DHT22;13365;52.208;5.488;2023-08-08T10:28:18;21.10;91.40
25440;DHT22;13365;52.208;5.488;2023-08-08T10:30:47;21.10;91.40
25440;DHT22;13365;52.208;5.488;2023-08-08T10:33:24;21.00;91.80
25440;DHT22;13365;52.208;5.488;2023-08-08T10:36:06;21.10;92.30
25440;DHT22;13365;52.208;5.488;2023-08-08T10:38:46;21.30;91.40
25440;DHT22;13365;52.208;5.488;2023-08-08T10:41:17;21.30;92.40
25440;DHT22;13365;52.208;5.488;2023-08-08T10:43:57;21.30;92.10
25440;DHT22;13365;52.208;5.488;2023-08-08T10:46:27;21.50;91.70
25440;DHT22;13365;52.208;5.488;2023-08-08T10:48:54;21.50;91.60
25440;DHT22;13365;52.208;5.488;2023-08-08T10:51:21;21.60;91.60
25440;DHT22;13365;52.208;5.488;2023-08-08T10:53:47;21.60;91.90
25440;DHT22;13365;52.208;5.488;2023-08-08T10:56:18;21.90;92.10
25440;DHT22;13365;52.208;5.488;2023-08-08T10:58:49;21.90;91.60
25440;DHT22;13365;52.208;5.488;2023-08-08T11:01:14;22.10;90.90
25440;DHT22;13365;52.208;5.488;2023-08-08T11:03:42;22.20;90.10
25440;DHT22;13365;52.208;5.488;2023-08-08T11:06:08;22.10;91.20
25440;DHT22;13365;52.208;5.488;2023-08-08T11:08:34;22.10;90.50
25440;DHT22;13365;52.208;5.488;2023-08-08T11:11:02;22.10;90.30
25440;DHT22;13365;52.208;5.488;2023-08-08T11:13:28;22.10;91.00
25440;DHT22;13365;52.208;5.488;2023-08-08T11:15:54;21.70;90.60
25440;DHT22;13365;52.208;5.488;2023-08-08T11:18:20;21.80;91.20
25440;DHT22;13365;52.208;5.488;2023-08-08T11:20:46;21.70;91.80
25440;DHT22;13365;52.208;5.488;2023-08-08T11:23:11;22.00;91.30
25440;DHT22;13365;52.208;5.488;2023-08-08T11:25:44;22.10;90.80
25440;DHT22;13365;52.208;5.488;2023-08-08T11:28:10;22.30;90.90
25440;DHT22;13365;52.208;5.488;2023-08-08T11:30:40;22.40;90.40
25440;DHT22;13365;52.208;5.488;2023-08-08T11:33:06;22.40;90.50
25440;DHT22;13365;52.208;5.488;2023-08-08T11:35:32;22.40;89.80
25440;DHT22;13365;52.208;5.488;2023-08-08T11:38:00;22.30;90.00
25440;DHT22;13365;52.208;5.488;2023-08-08T11:40:27;22.50;90.20
25440;DHT22;13365;52.208;5.488;2023-08-08T11:42:53;22.40;89.70
25440;DHT22;13365;52.208;5.488;2023-08-08T11:45:20;22.30;90.20
25440;DHT22;13365;52.208;5.488;2023-08-08T11:47:50;22.40;90.80
25440;DHT22;13365;52.208;5.488;2023-08-08T11:50:18;22.70;91.20
25440;DHT22;13365;52.208;5.488;2023-08-08T11:52:46;23.00;90.30
25440;DHT22;13365;52.208;5.488;2023-08-08T11:55:12;23.00;90.30
25440;DHT22;13365;52.208;5.488;2023-08-08T11:57:39;23.40;90.70
25440;DHT22;13365;52.208;5.488;2023-08-08T12:00:10;23.10;90.10
25440;DHT22;13365;52.208;5.488;2023-08-08T12:02:40;22.80;89.40
25440;DHT22;13365;52.208;5.488;2023-08-08T12:05:14;22.60;90.50
25440;DHT22;13365;52.208;5.488;2023-08-08T12:07:42;22.40;90.10
25440;DHT22;13365;52.208;5.488;2023-08-08T12:10:28;22.20;90.60
25440;DHT22;13365;52.208;5.488;2023-08-08T12:12:56;22.20;91.40
25440;DHT22;13365;52.208;5.488;2023-08-08T12:15:28;22.40;90.70
25440;DHT22;13365;52.208;5.488;2023-08-08T12:17:55;22.40;90.90
25440;DHT22;13365;52.208;5.488;2023-08-08T12:20:20;22.40;90.60
25440;DHT22;13365;52.208;5.488;2023-08-08T12:22:46;22.30;90.60
25440;DHT22;13365;52.208;5.488;2023-08-08T12:25:12;22.10;90.30
25440;DHT22;13365;52.208;5.488;2023-08-08T12:27:38;22.20;90.50
25440;DHT22;13365;52.208;5.488;2023-08-08T12:30:05;22.30;90.70
25440;DHT22;13365;52.208;5.488;2023-08-08T12:32:31;22.30;91.00
25440;DHT22;13365;52.208;5.488;2023-08-08T12:34:58;22.40;91.00
25440;DHT22;13365;52.208;5.488;2023-08-08T12:37:24;22.60;91.10
25440;DHT22;13365;52.208;5.488;2023-08-08T12:39:50;22.40;90.80
25440;DHT22;13365;52.208;5.488;2023-08-08T12:42:16;22.20;90.90
25440;DHT22;13365;52.208;5.488;2023-08-08T12:44:42;22.30;91.90
25440;DHT22;13365;52.208;5.488;2023-08-08T12:47:07;22.50;90.20
25440;DHT22;13365;52.208;5.488;2023-08-08T12:49:33;22.70;91.40
25440;DHT22;13365;52.208;5.488;2023-08-08T12:51:58;22.90;89.90
25440;DHT22;13365;52.208;5.488;2023-08-08T12:54:24;22.90;90.50
25440;DHT22;13365;52.208;5.488;2023-08-08T12:56:49;22.90;91.60
25440;DHT22;13365;52.208;5.488;2023-08-08T12:59:15;23.10;91.00
25440;DHT22;13365;52.208;5.488;2023-08-08T13:01:40;23.40;89.00
25440;DHT22;13365;52.208;5.488;2023-08-08T13:04:06;23.30;88.20
25440;DHT22;13365;52.208;5.488;2023-08-08T13:06:31;23.20;90.10
25440;DHT22;13365;52.208;5.488;2023-08-08T13:08:58;23.40;90.40
25440;DHT22;13365;52.208;5.488;2023-08-08T13:11:24;23.60;88.10
25440;DHT22;13365;52.208;5.488;2023-08-08T13:13:49;23.40;86.80
25440;DHT22;13365;52.208;5.488;2023-08-08T13:16:15;23.20;89.70
25440;DHT22;13365;52.208;5.488;2023-08-08T13:18:40;23.10;88.20
25440;DHT22;13365;52.208;5.488;2023-08-08T13:21:06;23.20;88.70
25440;DHT22;13365;52.208;5.488;2023-08-08T13:23:32;23.30;88.80
25440;DHT22;13365;52.208;5.488;2023-08-08T13:25:57;23.00;88.50
25440;DHT22;13365;52.208;5.488;2023-08-08T13:28:23;23.00;89.30
25440;DHT22;13365;52.208;5.488;2023-08-08T13:30:49;22.50;88.30
25440;DHT22;13365;52.208;5.488;2023-08-08T13:33:14;22.40;89.60
25440;DHT22;13365;52.208;5.488;2023-08-08T13:35:40;22.30;90.10
25440;DHT22;13365;52.208;5.488;2023-08-08T13:38:05;22.40;90.80
25440;DHT22;13365;52.208;5.488;2023-08-08T13:40:32;22.30;90.50
25440;DHT22;13365;52.208;5.488;2023-08-08T13:42:57;22.30;90.70
25440;DHT22;13365;52.208;5.488;2023-08-08T13:45:23;22.40;91.10
25440;DHT22;13365;52.208;5.488;2023-08-08T13:47:49;22.50;90.90
25440;DHT22;13365;52.208;5.488;2023-08-08T13:50:15;22.40;90.50
25440;DHT22;13365;52.208;5.488;2023-08-08T13:52:41;22.40;90.90
25440;DHT22;13365;52.208;5.488;2023-08-08T13:55:08;22.20;90.70
25440;DHT22;13365;52.208;5.488;2023-08-08T13:57:34;22.40;90.80
25440;DHT22;13365;52.208;5.488;2023-08-08T14:00:00;22.50;90.40
25440;DHT22;13365;52.208;5.488;2023-08-08T14:02:25;22.30;90.50
25440;DHT22;13365;52.208;5.488;2023-08-08T14:04:51;22.40;90.20
25440;DHT22;13365;52.208;5.488;2023-08-08T14:07:17;22.40;90.70
25440;DHT22;13365;52.208;5.488;2023-08-08T14:09:43;21.90;90.50
25440;DHT22;13365;52.208;5.488;2023-08-08T14:12:09;21.70;90.80
25440;DHT22;13365;52.208;5.488;2023-08-08T14:14:34;21.80;91.60
25440;DHT22;13365;52.208;5.488;2023-08-08T14:17:00;21.80;91.00
25440;DHT22;13365;52.208;5.488;2023-08-08T14:19:25;21.70;91.70
25440;DHT22;13365;52.208;5.488;2023-08-08T14:21:51;21.70;91.80
25440;DHT22;13365;52.208;5.488;2023-08-08T14:24:16;21.50;92.30
25440;DHT22;13365;52.208;5.488;2023-08-08T14:26:42;21.90;93.20
25440;DHT22;13365;52.208;5.488;2023-08-08T14:29:07;22.30;91.80
25440;DHT22;13365;52.208;5.488;2023-08-08T14:31:33;22.30;90.50
25440;DHT22;13365;52.208;5.488;2023-08-08T14:33:58;22.10;91.40
25440;DHT22;13365;52.208;5.488;2023-08-08T14:36:24;21.90;90.90
25440;DHT22;13365;52.208;5.488;2023-08-08T14:38:49;21.60;91.20
25440;DHT22;13365;52.208;5.488;2023-08-08T14:41:15;21.40;91.10
25440;DHT22;13365;52.208;5.488;2023-08-08T14:43:40;21.30;92.10
25440;DHT22;13365;52.208;5.488;2023-08-08T14:46:06;21.50;92.20
25440;DHT22;13365;52.208;5.488;2023-08-08T14:48:32;21.60;92.10
25440;DHT22;13365;52.208;5.488;2023-08-08T14:51:01;21.70;92.10
25440;DHT22;13365;52.208;5.488;2023-08-08T14:53:26;21.80;91.60
25440;DHT22;13365;52.208;5.488;2023-08-08T14:55:53;21.70;91.70
25440;DHT22;13365;52.208;5.488;2023-08-08T14:58:18;21.60;91.30
25440;DHT22;13365;52.208;5.488;2023-08-08T15:00:44;21.50;92.10
25440;DHT22;13365;52.208;5.488;2023-08-08T15:03:10;21.50;92.40
25440;DHT22;13365;52.208;5.488;2023-08-08T15:05:35;22.00;92.00
25440;DHT22;13365;52.208;5.488;2023-08-08T15:08:01;22.30;90.40
25440;DHT22;13365;52.208;5.488;2023-08-08T15:10:26;22.00;90.40
25440;DHT22;13365;52.208;5.488;2023-08-08T15:12:52;22.20;90.90
25440;DHT22;13365;52.208;5.488;2023-08-08T15:15:17;22.30;90.60
25440;DHT22;13365;52.208;5.488;2023-08-08T15:17:45;22.20;90.80
25440;DHT22;13365;52.208;5.488;2023-08-08T15:20:11;22.50;90.60
25440;DHT22;13365;52.208;5.488;2023-08-08T15:22:36;22.40;90.40
25440;DHT22;13365;52.208;5.488;2023-08-08T15:25:02;22.70;90.90
25440;DHT22;13365;52.208;5.488;2023-08-08T15:27:29;22.70;91.20